createdAt,value
2022-08-31T00:00:12.863Z,14.28
2022-08-31T00:01:12.877Z,14.44
2022-08-31T00:02:12.892Z,14.28
2022-08-31T00:03:12.876Z,14.28
2022-08-31T00:04:12.947Z,14.28
2022-08-31T00:05:12.883Z,14.11
2022-08-31T00:06:12.883Z,14.28
2022-08-31T00:07:12.876Z,14.61
2022-08-31T00:08:12.874Z,14.61
2022-08-31T00:09:12.885Z,14.61
2022-08-31T00:10:12.878Z,14.11
2022-08-31T00:11:12.884Z,14.28
2022-08-31T00:12:12.889Z,14.28
2022-08-31T00:13:12.898Z,14.44
2022-08-31T00:14:13.265Z,14.11
2022-08-31T00:15:12.888Z,14.28
2022-08-31T00:16:12.923Z,14.11
2022-08-31T00:17:12.884Z,14
2022-08-31T00:18:12.883Z,13.83
2022-08-31T00:19:12.898Z,13.83
2022-08-31T00:20:17.975Z,13.67
2022-08-31T00:21:12.892Z,13.67
2022-08-31T00:22:12.886Z,13.83
2022-08-31T00:23:12.900Z,13.56
2022-08-31T00:24:12.890Z,13.83
2022-08-31T00:25:12.899Z,13.83
2022-08-31T00:26:12.893Z,13.83
2022-08-31T00:27:12.897Z,14
2022-08-31T00:28:12.898Z,14.28
2022-08-31T00:29:12.901Z,14.11
2022-08-31T00:30:12.899Z,14.44
2022-08-31T00:31:12.962Z,14.44
2022-08-31T00:32:12.893Z,14.44
2022-08-31T00:33:12.900Z,14.28
2022-08-31T00:34:12.892Z,14.28
2022-08-31T00:35:12.902Z,14.61
2022-08-31T00:36:12.899Z,14.28
2022-08-31T00:37:12.897Z,14.28
2022-08-31T00:38:12.907Z,14.28
2022-08-31T00:39:12.906Z,14.61
2022-08-31T00:40:12.950Z,14.11
2022-08-31T00:41:12.908Z,14.11
2022-08-31T00:42:12.905Z,14.28
2022-08-31T00:43:12.942Z,14.11
2022-08-31T00:44:12.909Z,14.11
2022-08-31T00:45:12.904Z,14.28
2022-08-31T00:46:12.988Z,14.44
2022-08-31T00:47:12.906Z,14.28
2022-08-31T00:48:12.902Z,14.44
2022-08-31T00:49:12.910Z,14.28
2022-08-31T00:50:12.917Z,14.28
2022-08-31T00:51:13.184Z,14.28
2022-08-31T00:52:12.916Z,14.11
2022-08-31T00:53:12.961Z,14.28
2022-08-31T00:54:12.908Z,13.83
2022-08-31T00:55:12.910Z,13.83
2022-08-31T00:56:12.913Z,13.83
2022-08-31T00:57:12.910Z,14
2022-08-31T00:58:12.908Z,13.56
2022-08-31T00:59:12.908Z,13.83
2022-08-31T01:00:12.908Z,13.83
2022-08-31T01:01:12.975Z,13.83
2022-08-31T01:02:13.027Z,13.83
2022-08-31T01:03:12.909Z,13.83
2022-08-31T01:04:12.921Z,13.67
2022-08-31T01:05:12.915Z,13.83
2022-08-31T01:06:12.913Z,13.83
2022-08-31T01:07:12.914Z,14
2022-08-31T01:08:12.909Z,13.83
2022-08-31T01:09:12.914Z,13.83
2022-08-31T01:10:12.919Z,14.28
2022-08-31T01:11:12.915Z,14.11
2022-08-31T01:12:12.916Z,14
2022-08-31T01:13:12.987Z,14.11
2022-08-31T01:14:12.914Z,14.28
2022-08-31T01:15:12.918Z,14.11
2022-08-31T01:16:12.977Z,14.28
2022-08-31T01:17:12.911Z,14.44
2022-08-31T01:18:12.919Z,14.11
2022-08-31T01:19:12.925Z,14.11
2022-08-31T01:20:12.915Z,14.28
2022-08-31T01:21:12.923Z,14.11
2022-08-31T01:22:12.919Z,14
2022-08-31T01:23:12.922Z,14.11
2022-08-31T01:24:12.919Z,14.28
2022-08-31T01:25:12.923Z,14.28
2022-08-31T01:26:12.920Z,14.28
2022-08-31T01:27:12.924Z,14.11
2022-08-31T01:28:12.928Z,14.28
2022-08-31T01:29:12.924Z,14.28
2022-08-31T01:30:12.925Z,14.28
2022-08-31T01:31:12.943Z,14.44
2022-08-31T01:32:12.918Z,14.61
2022-08-31T01:33:12.921Z,14.11
2022-08-31T01:34:12.923Z,14.44
2022-08-31T01:35:12.930Z,14.44
2022-08-31T01:36:15.918Z,14.28
2022-08-31T01:37:12.919Z,14.28
2022-08-31T01:38:12.924Z,14.44
2022-08-31T01:39:12.926Z,14.11
2022-08-31T01:40:13.010Z,14.28
2022-08-31T01:41:13.024Z,14.28
2022-08-31T01:42:12.927Z,14.11
2022-08-31T01:43:13.041Z,14.28
2022-08-31T01:44:12.928Z,14.28
2022-08-31T01:45:12.928Z,14.28
2022-08-31T01:46:12.927Z,14.11
2022-08-31T01:47:12.944Z,14.28
2022-08-31T01:48:12.935Z,14.28
2022-08-31T01:49:12.925Z,14
2022-08-31T01:50:12.934Z,14.28
2022-08-31T01:51:12.936Z,14.28
2022-08-31T01:52:12.937Z,14.11
2022-08-31T01:53:12.950Z,14.28
2022-08-31T01:54:12.941Z,14.78
2022-08-31T01:55:12.940Z,14.28
2022-08-31T01:56:12.939Z,14.44
2022-08-31T01:57:12.947Z,14.28
2022-08-31T01:58:12.936Z,14.11
2022-08-31T01:59:12.943Z,14.28
2022-08-31T02:00:12.926Z,14.28
2022-08-31T02:01:33.330Z,14.61
2022-08-31T02:02:12.989Z,14.44
2022-08-31T02:03:12.948Z,14.78
2022-08-31T02:04:12.946Z,14.78
2022-08-31T02:05:12.946Z,14.78
2022-08-31T02:06:12.952Z,14.28
2022-08-31T02:07:12.958Z,14.28
2022-08-31T02:08:12.954Z,14.78
2022-08-31T02:09:12.951Z,14.61
2022-08-31T02:10:12.951Z,14.28
2022-08-31T02:11:12.956Z,14.61
2022-08-31T02:12:12.958Z,14.44
2022-08-31T02:13:12.956Z,14.61
2022-08-31T02:14:12.963Z,14.61
2022-08-31T02:15:12.965Z,14.78
2022-08-31T02:16:13.029Z,14.61
2022-08-31T02:17:12.967Z,14.78
2022-08-31T02:18:12.974Z,14.61
2022-08-31T02:19:12.972Z,14.44
2022-08-31T02:20:12.974Z,14.61
2022-08-31T02:21:12.974Z,14.28
2022-08-31T02:22:12.977Z,14.44
2022-08-31T02:23:12.969Z,14.44
2022-08-31T02:24:12.977Z,14.44
2022-08-31T02:25:12.980Z,14.28
2022-08-31T02:26:12.983Z,14.28
2022-08-31T02:27:12.987Z,14.44
2022-08-31T02:28:12.984Z,14.28
2022-08-31T02:29:12.987Z,14.28
2022-08-31T02:30:12.991Z,14.28
2022-08-31T02:31:13.004Z,14.28
2022-08-31T02:32:15.523Z,14.44
2022-08-31T02:33:12.985Z,14.28
2022-08-31T02:34:12.987Z,14.61
2022-08-31T02:35:12.988Z,14.28
2022-08-31T02:36:12.988Z,14.61
2022-08-31T02:37:12.988Z,14.61
2022-08-31T02:38:12.990Z,14.61
2022-08-31T02:39:12.986Z,14.61
2022-08-31T02:40:13.345Z,14.44
2022-08-31T02:41:12.997Z,14.61
2022-08-31T02:42:12.997Z,14.44
2022-08-31T02:43:17.539Z,14.61
2022-08-31T02:44:12.997Z,14.61
2022-08-31T02:45:12.997Z,14.44
2022-08-31T02:46:13.080Z,14.28
2022-08-31T02:47:12.989Z,14.11
2022-08-31T02:48:12.998Z,13.56
2022-08-31T02:49:13.000Z,14.11
2022-08-31T02:50:12.998Z,14.11
2022-08-31T02:51:13.004Z,14.28
2022-08-31T02:52:13.009Z,14.28
2022-08-31T02:53:13.083Z,14.28
2022-08-31T02:54:13.015Z,14.11
2022-08-31T02:55:12.997Z,14.11
2022-08-31T02:56:13.012Z,14.28
2022-08-31T02:57:13.013Z,14.11
2022-08-31T02:58:13.011Z,14.28
2022-08-31T02:59:13.016Z,14.28
2022-08-31T03:00:13.019Z,14.11
2022-08-31T03:01:13.041Z,14.11
2022-08-31T03:02:13.090Z,14.28
2022-08-31T03:03:13.185Z,14.11
2022-08-31T03:04:13.024Z,14.28
2022-08-31T03:05:13.017Z,14.28
2022-08-31T03:06:13.024Z,14
2022-08-31T03:07:13.021Z,14.28
2022-08-31T03:08:13.030Z,14
2022-08-31T03:09:13.032Z,14.11
2022-08-31T03:10:13.029Z,13.83
2022-08-31T03:11:13.038Z,14
2022-08-31T03:12:13.031Z,14.11
2022-08-31T03:13:13.039Z,14.11
2022-08-31T03:14:13.026Z,14.11
2022-08-31T03:15:13.036Z,14.28
2022-08-31T03:16:13.078Z,14.44
2022-08-31T03:17:13.034Z,14.28
2022-08-31T03:18:13.037Z,14.28
2022-08-31T03:19:13.030Z,14.28
2022-08-31T03:20:13.041Z,14.44
2022-08-31T03:21:13.039Z,14.28
2022-08-31T03:22:13.036Z,14.28
2022-08-31T03:23:13.039Z,14.28
2022-08-31T03:24:13.038Z,14.44
2022-08-31T03:25:13.038Z,14.61
2022-08-31T03:26:13.046Z,14.28
2022-08-31T03:27:13.042Z,14.28
2022-08-31T03:28:13.045Z,14.11
2022-08-31T03:29:13.042Z,14.28
2022-08-31T03:30:13.050Z,14.28
2022-08-31T03:31:13.089Z,14.28
2022-08-31T03:32:13.048Z,14.44
2022-08-31T03:33:13.111Z,14.28
2022-08-31T03:34:15.894Z,14.44
2022-08-31T03:35:13.046Z,14.28
2022-08-31T03:36:13.047Z,14.28
2022-08-31T03:37:13.050Z,14.44
2022-08-31T03:38:13.071Z,14.28
2022-08-31T03:39:13.047Z,14.28
2022-08-31T03:40:13.119Z,14.44
2022-08-31T03:41:13.059Z,14.78
2022-08-31T03:42:13.050Z,14.44
2022-08-31T03:43:13.130Z,14.44
2022-08-31T03:44:13.058Z,14.61
2022-08-31T03:45:13.065Z,14.44
2022-08-31T03:46:13.104Z,14.61
2022-08-31T03:47:14.593Z,14.44
2022-08-31T03:48:13.376Z,14.61
2022-08-31T03:49:13.058Z,14.78
2022-08-31T03:50:13.057Z,14.44
2022-08-31T03:51:13.071Z,14.61
2022-08-31T03:52:13.063Z,14.28
2022-08-31T03:53:13.072Z,14.78
2022-08-31T03:54:13.076Z,14.61
2022-08-31T03:55:13.066Z,14.78
2022-08-31T03:56:13.077Z,14.61
2022-08-31T03:57:13.075Z,14.61
2022-08-31T03:58:13.079Z,14.78
2022-08-31T03:59:13.070Z,14.61
2022-08-31T04:00:13.074Z,14.78
2022-08-31T04:01:13.120Z,14.78
2022-08-31T04:02:13.113Z,14.78
2022-08-31T04:03:13.200Z,14.61
2022-08-31T04:04:13.085Z,14.89
2022-08-31T04:05:13.087Z,14.78
2022-08-31T04:06:13.088Z,14.89
2022-08-31T04:07:13.084Z,14.89
2022-08-31T04:08:13.092Z,14.78
2022-08-31T04:09:13.092Z,14.61
2022-08-31T04:10:13.089Z,14.61
2022-08-31T04:11:13.095Z,14.78
2022-08-31T04:12:13.097Z,14.78
2022-08-31T04:13:13.092Z,14.78
2022-08-31T04:14:14.948Z,14.78
2022-08-31T04:15:13.095Z,14.78
2022-08-31T04:16:13.160Z,14.61
2022-08-31T04:17:13.103Z,14.61
2022-08-31T04:18:13.098Z,14.78
2022-08-31T04:19:13.099Z,14.61
2022-08-31T04:20:13.108Z,14.28
2022-08-31T04:21:13.104Z,14.44
2022-08-31T04:22:13.106Z,14.61
2022-08-31T04:23:13.111Z,14.61
2022-08-31T04:24:13.110Z,14.44
2022-08-31T04:25:13.111Z,14.44
2022-08-31T04:26:13.107Z,14.61
2022-08-31T04:27:13.112Z,14.44
2022-08-31T04:28:13.118Z,14.61
2022-08-31T04:29:13.792Z,14.61
2022-08-31T04:30:13.116Z,14.61
2022-08-31T04:31:13.139Z,14.78
2022-08-31T04:32:13.123Z,14.61
2022-08-31T04:33:13.120Z,14.78
2022-08-31T04:34:13.125Z,14.78
2022-08-31T04:35:13.121Z,14.78
2022-08-31T04:36:13.117Z,15.06
2022-08-31T04:37:13.126Z,14.89
2022-08-31T04:38:13.124Z,15.06
2022-08-31T04:39:13.123Z,15.06
2022-08-31T04:40:13.189Z,14.89
2022-08-31T04:41:13.124Z,14.78
2022-08-31T04:42:13.123Z,14.89
2022-08-31T04:43:13.128Z,14.78
2022-08-31T04:44:16.505Z,14.78
2022-08-31T04:45:13.119Z,14.78
2022-08-31T04:46:13.189Z,14.78
2022-08-31T04:47:13.128Z,14.78
2022-08-31T04:48:13.132Z,14.78
2022-08-31T04:49:13.136Z,14.78
2022-08-31T04:50:13.133Z,14.78
2022-08-31T04:51:13.127Z,14.61
2022-08-31T04:52:13.137Z,14.61
2022-08-31T04:53:13.133Z,14.78
2022-08-31T04:54:13.139Z,14.78
2022-08-31T04:55:13.139Z,14.78
2022-08-31T04:56:13.139Z,14.61
2022-08-31T04:57:13.130Z,14.28
2022-08-31T04:58:13.156Z,14.28
2022-08-31T04:59:13.142Z,14.28
2022-08-31T05:00:13.139Z,14.11
2022-08-31T05:01:13.225Z,14.28
2022-08-31T05:02:13.249Z,14.11
2022-08-31T05:03:13.141Z,14.28
2022-08-31T05:04:13.142Z,14.28
2022-08-31T05:05:13.140Z,14.28
2022-08-31T05:06:13.147Z,14.11
2022-08-31T05:07:13.146Z,14.28
2022-08-31T05:08:13.156Z,14.28
2022-08-31T05:09:13.157Z,14.28
2022-08-31T05:10:13.162Z,14.28
2022-08-31T05:11:13.158Z,14.11
2022-08-31T05:12:13.154Z,14.11
2022-08-31T05:13:13.154Z,14.28
2022-08-31T05:14:13.158Z,14.28
2022-08-31T05:15:13.164Z,14.28
2022-08-31T05:16:13.192Z,14.28
2022-08-31T05:17:14.874Z,14.11
2022-08-31T05:18:13.163Z,14.28
2022-08-31T05:19:13.164Z,14.28
2022-08-31T05:20:13.171Z,14.28
2022-08-31T05:21:13.162Z,14.44
2022-08-31T05:22:13.162Z,14.28
2022-08-31T05:23:13.164Z,14.28
2022-08-31T05:24:13.175Z,14.11
2022-08-31T05:25:13.161Z,14.11
2022-08-31T05:26:13.167Z,14
2022-08-31T05:27:13.162Z,14.28
2022-08-31T05:28:13.177Z,14.11
2022-08-31T05:29:13.155Z,14.28
2022-08-31T05:30:13.171Z,14.11
2022-08-31T05:31:13.214Z,14.28
2022-08-31T05:32:13.170Z,14.28
2022-08-31T05:33:13.171Z,14
2022-08-31T05:34:13.176Z,14.28
2022-08-31T05:35:13.169Z,14.44
2022-08-31T05:36:13.171Z,14
2022-08-31T05:37:13.165Z,14
2022-08-31T05:38:13.169Z,14.11
2022-08-31T05:39:13.170Z,14.11
2022-08-31T05:40:13.240Z,14.11
2022-08-31T05:41:13.178Z,14
2022-08-31T05:42:13.173Z,14.11
2022-08-31T05:43:13.172Z,14.28
2022-08-31T05:44:13.179Z,14.28
2022-08-31T05:45:13.171Z,14.28
2022-08-31T05:46:13.357Z,14.28
2022-08-31T05:47:13.178Z,14.28
2022-08-31T05:48:13.178Z,14.28
2022-08-31T05:49:13.176Z,14.28
2022-08-31T05:50:13.174Z,14.28
2022-08-31T05:51:13.180Z,14.28
2022-08-31T05:52:13.167Z,14.11
2022-08-31T05:53:13.174Z,14.28
2022-08-31T05:54:13.172Z,14.44
2022-08-31T05:55:13.173Z,14.28
2022-08-31T05:56:13.194Z,14.28
2022-08-31T05:57:13.177Z,14.28
2022-08-31T05:58:13.170Z,14.11
2022-08-31T05:59:13.177Z,14.28
2022-08-31T06:00:13.176Z,14.28
2022-08-31T06:01:13.182Z,14.11
2022-08-31T06:02:13.222Z,14.28
2022-08-31T06:03:13.174Z,14.44
2022-08-31T06:04:13.182Z,14.28
2022-08-31T06:05:13.237Z,14.11
2022-08-31T06:06:13.176Z,14.28
2022-08-31T06:07:13.182Z,14.28
2022-08-31T06:08:15.376Z,14.44
2022-08-31T06:09:13.178Z,14.28
2022-08-31T06:10:13.180Z,14.28
2022-08-31T06:11:13.181Z,14.28
2022-08-31T06:12:13.184Z,14.28
2022-08-31T06:13:13.189Z,14.11
2022-08-31T06:14:13.182Z,14.28
2022-08-31T06:15:13.189Z,14.11
2022-08-31T06:16:13.232Z,14.28
2022-08-31T06:17:13.200Z,14.28
2022-08-31T06:18:13.194Z,14.28
2022-08-31T06:19:13.201Z,14.28
2022-08-31T06:20:17.552Z,14.11
2022-08-31T06:21:13.195Z,14.44
2022-08-31T06:22:13.195Z,14.11
2022-08-31T06:23:13.198Z,14.11
2022-08-31T06:24:13.209Z,14.28
2022-08-31T06:25:13.201Z,14.28
2022-08-31T06:26:13.216Z,14.11
2022-08-31T06:27:13.207Z,14.28
2022-08-31T06:28:13.207Z,14.28
2022-08-31T06:29:13.208Z,14.44
2022-08-31T06:30:13.212Z,14.28
2022-08-31T06:31:13.251Z,14.11
2022-08-31T06:32:13.216Z,14.28
2022-08-31T06:33:13.215Z,14.11
2022-08-31T06:34:13.210Z,14.44
2022-08-31T06:35:13.217Z,14.28
2022-08-31T06:36:13.222Z,14.61
2022-08-31T06:37:18.266Z,14.28
2022-08-31T06:38:13.213Z,14.28
2022-08-31T06:39:13.213Z,14.44
2022-08-31T06:40:13.265Z,14.11
2022-08-31T06:41:13.215Z,14.61
2022-08-31T06:42:13.214Z,14.61
2022-08-31T06:43:13.220Z,14.61
2022-08-31T06:44:13.220Z,14.44
2022-08-31T06:45:13.216Z,14.11
2022-08-31T06:46:13.274Z,14.61
2022-08-31T06:47:13.214Z,14.44
2022-08-31T06:48:13.222Z,14.61
2022-08-31T06:49:13.217Z,14.78
2022-08-31T06:50:13.220Z,14.61
2022-08-31T06:51:13.226Z,14.78
2022-08-31T06:52:13.229Z,14.44
2022-08-31T06:53:13.227Z,14.61
2022-08-31T06:54:29.984Z,14.78
2022-08-31T06:55:13.233Z,14.78
2022-08-31T06:56:14.275Z,14.78
2022-08-31T06:57:13.247Z,14.78
2022-08-31T06:58:13.238Z,14.89
2022-08-31T06:59:13.238Z,14.89
2022-08-31T07:00:13.252Z,15.06
2022-08-31T07:01:13.317Z,14.78
2022-08-31T07:02:13.392Z,14.89
2022-08-31T07:03:13.249Z,14.78
2022-08-31T07:04:13.250Z,14.61
2022-08-31T07:05:19.855Z,14.44
2022-08-31T07:06:13.250Z,14.61
2022-08-31T07:07:13.248Z,14.78
2022-08-31T07:08:13.256Z,14.78
2022-08-31T07:09:13.260Z,14.61
2022-08-31T07:10:13.254Z,14.89
2022-08-31T07:11:13.262Z,14.89
2022-08-31T07:12:13.255Z,14.78
2022-08-31T07:13:13.269Z,14.78
2022-08-31T07:14:13.269Z,14.78
2022-08-31T07:15:13.259Z,14.78
2022-08-31T07:16:13.341Z,14.61
2022-08-31T07:17:13.263Z,14.89
2022-08-31T07:18:13.256Z,14.89
2022-08-31T07:19:13.253Z,15.06
2022-08-31T07:20:13.274Z,14.89
2022-08-31T07:21:13.267Z,14.78
2022-08-31T07:22:15.331Z,14.44
2022-08-31T07:23:13.264Z,14.78
2022-08-31T07:24:13.268Z,14.89
2022-08-31T07:25:13.270Z,14.78
2022-08-31T07:26:13.263Z,14.89
2022-08-31T07:27:13.269Z,14.89
2022-08-31T07:28:13.269Z,14.78
2022-08-31T07:29:13.274Z,14.89
2022-08-31T07:30:13.273Z,15.06
2022-08-31T07:31:13.336Z,14.78
2022-08-31T07:32:13.274Z,14.89
2022-08-31T07:33:13.264Z,14.78
2022-08-31T07:34:13.278Z,14.78
2022-08-31T07:35:13.277Z,14.78
2022-08-31T07:36:13.283Z,14.89
2022-08-31T07:37:13.281Z,15.06
2022-08-31T07:38:13.282Z,15.17
2022-08-31T07:39:13.283Z,14.89
2022-08-31T07:40:13.377Z,14.89
2022-08-31T07:41:13.281Z,14.89
2022-08-31T07:42:13.291Z,15.06
2022-08-31T07:43:13.286Z,14.78
2022-08-31T07:44:13.288Z,14.78
2022-08-31T07:45:13.291Z,14.89
2022-08-31T07:46:13.349Z,14.78
2022-08-31T07:47:13.356Z,15.06
2022-08-31T07:48:13.295Z,14.78
2022-08-31T07:49:13.303Z,14.89
2022-08-31T07:50:13.303Z,14.78
2022-08-31T07:51:15.201Z,14.89
2022-08-31T07:52:13.306Z,14.78
2022-08-31T07:53:13.304Z,15.17
2022-08-31T07:54:13.308Z,15.06
2022-08-31T07:55:13.310Z,15.17
2022-08-31T07:56:13.312Z,15.17
2022-08-31T07:57:13.310Z,15.17
2022-08-31T07:58:13.311Z,15.17
2022-08-31T07:59:13.318Z,15.17
2022-08-31T08:00:13.312Z,15.17
2022-08-31T08:01:13.314Z,15.06
2022-08-31T08:02:17.149Z,15.17
2022-08-31T08:03:13.524Z,15.17
2022-08-31T08:04:13.316Z,15.17
2022-08-31T08:05:13.313Z,15.06
2022-08-31T08:06:13.318Z,14.89
2022-08-31T08:07:13.318Z,15.44
2022-08-31T08:08:13.723Z,15.44
2022-08-31T08:09:22.694Z,15.28
2022-08-31T08:10:13.328Z,15.17
2022-08-31T08:11:13.334Z,15.61
2022-08-31T08:12:13.333Z,15.17
2022-08-31T08:13:13.451Z,15.17
2022-08-31T08:14:13.324Z,15.17
2022-08-31T08:15:13.333Z,15.06
2022-08-31T08:16:13.387Z,15.17
2022-08-31T08:17:13.338Z,15.28
2022-08-31T08:18:13.339Z,15.28
2022-08-31T08:19:13.342Z,15.28
2022-08-31T08:20:13.968Z,15.28
2022-08-31T08:21:13.365Z,15.28
2022-08-31T08:22:13.340Z,15.28
2022-08-31T08:23:13.523Z,15.17
2022-08-31T08:24:13.339Z,15.44
2022-08-31T08:25:13.343Z,15.61
2022-08-31T08:26:14.069Z,15.17
2022-08-31T08:27:13.352Z,15.61
2022-08-31T08:28:35.705Z,15.28
2022-08-31T08:29:13.354Z,15.06
2022-08-31T08:30:13.348Z,15.17
2022-08-31T08:31:13.399Z,14.89
2022-08-31T08:32:17.329Z,15.06
2022-08-31T08:33:13.353Z,15.17
2022-08-31T08:34:13.363Z,15.17
2022-08-31T08:35:13.355Z,15.17
2022-08-31T08:36:13.355Z,15.06
2022-08-31T08:37:13.358Z,15.06
2022-08-31T08:38:13.367Z,14.89
2022-08-31T08:39:13.431Z,15.06
2022-08-31T08:40:13.421Z,15.17
2022-08-31T08:41:13.370Z,15.17
2022-08-31T08:42:13.367Z,15.28
2022-08-31T08:43:13.370Z,15.17
2022-08-31T08:44:16.769Z,15.44
2022-08-31T08:45:13.372Z,15.44
2022-08-31T08:46:31.589Z,15.28
2022-08-31T08:47:13.372Z,15.61
2022-08-31T08:48:13.371Z,15.44
2022-08-31T08:49:13.371Z,15.61
2022-08-31T08:50:13.368Z,15.61
2022-08-31T08:51:13.370Z,15.61
2022-08-31T08:52:13.376Z,15.61
2022-08-31T08:53:13.424Z,15.44
2022-08-31T08:54:13.375Z,15.44
2022-08-31T08:55:13.382Z,15.61
2022-08-31T08:56:32.138Z,15.61
2022-08-31T08:57:13.377Z,15.44
2022-08-31T08:58:13.526Z,15.61
2022-08-31T08:59:17.277Z,15.61
2022-08-31T09:00:13.389Z,15.78
2022-08-31T09:01:13.447Z,15.78
2022-08-31T09:02:13.408Z,15.89
2022-08-31T09:03:13.436Z,15.89
2022-08-31T09:04:13.387Z,16.06
2022-08-31T09:05:13.384Z,15.61
2022-08-31T09:06:13.383Z,15.61
2022-08-31T09:07:13.391Z,15.61
2022-08-31T09:08:13.390Z,15.61
2022-08-31T09:09:13.394Z,15.44
2022-08-31T09:10:13.391Z,15.89
2022-08-31T09:11:13.389Z,15.78
2022-08-31T09:12:14.951Z,15.89
2022-08-31T09:13:13.395Z,15.78
2022-08-31T09:14:13.392Z,15.61
2022-08-31T09:15:13.406Z,15.61
2022-08-31T09:16:13.425Z,16.06
2022-08-31T09:17:13.397Z,16.06
2022-08-31T09:18:13.398Z,16.06
2022-08-31T09:19:13.396Z,16.06
2022-08-31T09:20:13.401Z,16.06
2022-08-31T09:21:13.401Z,15.89
2022-08-31T09:22:13.403Z,15.89
2022-08-31T09:23:13.446Z,15.89
2022-08-31T09:24:13.395Z,15.89
2022-08-31T09:25:13.399Z,15.78
2022-08-31T09:26:13.415Z,16.06
2022-08-31T09:27:13.397Z,16.06
2022-08-31T09:28:13.409Z,16.06
2022-08-31T09:29:13.420Z,15.89
2022-08-31T09:30:13.403Z,16.39
2022-08-31T09:31:13.471Z,16.56
2022-08-31T09:32:13.407Z,16.06
2022-08-31T09:33:13.411Z,15.89
2022-08-31T09:34:13.414Z,16.06
2022-08-31T09:35:13.416Z,15.89
2022-08-31T09:36:13.407Z,16.06
2022-08-31T09:37:13.418Z,16.06
2022-08-31T09:38:13.409Z,15.78
2022-08-31T09:39:13.411Z,15.78
2022-08-31T09:40:13.446Z,16.06
2022-08-31T09:41:13.425Z,16.22
2022-08-31T09:42:13.428Z,16.56
2022-08-31T09:43:13.844Z,16.56
2022-08-31T09:44:13.424Z,16.22
2022-08-31T09:45:13.724Z,16.06
2022-08-31T09:46:13.450Z,16.06
2022-08-31T09:47:13.416Z,16.39
2022-08-31T09:48:13.432Z,16.72
2022-08-31T09:49:13.420Z,16.39
2022-08-31T09:50:13.685Z,15.89
2022-08-31T09:51:13.425Z,16.56
2022-08-31T09:52:13.427Z,16.56
2022-08-31T09:53:13.429Z,16.56
2022-08-31T09:54:13.422Z,16.39
2022-08-31T09:55:13.425Z,16.56
2022-08-31T09:56:13.429Z,16.56
2022-08-31T09:57:13.430Z,16.56
2022-08-31T09:58:13.426Z,16.56
2022-08-31T09:59:13.429Z,16.56
2022-08-31T10:00:13.427Z,16.56
2022-08-31T10:01:13.565Z,16.39
2022-08-31T10:02:13.435Z,16.06
2022-08-31T10:03:13.638Z,16.39
2022-08-31T10:04:13.439Z,16.56
2022-08-31T10:05:13.484Z,16.56
2022-08-31T10:06:13.439Z,17
2022-08-31T10:07:13.437Z,16.56
2022-08-31T10:08:16.373Z,16.39
2022-08-31T10:09:13.436Z,16.56
2022-08-31T10:10:24.328Z,16.89
2022-08-31T10:11:13.444Z,17
2022-08-31T10:12:13.446Z,16.89
2022-08-31T10:13:13.441Z,16.56
2022-08-31T10:14:13.443Z,16.72
2022-08-31T10:15:15.511Z,16.39
2022-08-31T10:16:13.460Z,16.22
2022-08-31T10:17:13.450Z,16.06
2022-08-31T10:18:13.443Z,16.06
2022-08-31T10:19:13.443Z,16.06
2022-08-31T10:20:13.445Z,16.06
2022-08-31T10:21:13.441Z,16.06
2022-08-31T10:22:13.443Z,16.06
2022-08-31T10:23:13.441Z,16.22
2022-08-31T10:24:13.440Z,16.06
2022-08-31T10:25:13.449Z,16.39
2022-08-31T10:26:13.445Z,16.56
2022-08-31T10:27:13.450Z,16.06
2022-08-31T10:28:13.444Z,16.39
2022-08-31T10:29:16.799Z,16.39
2022-08-31T10:30:13.470Z,16.22
2022-08-31T10:31:13.538Z,16.39
2022-08-31T10:32:13.454Z,16.56
2022-08-31T10:33:13.458Z,16.56
2022-08-31T10:34:13.448Z,16.56
2022-08-31T10:35:13.448Z,16.56
2022-08-31T10:36:13.454Z,16.56
2022-08-31T10:37:13.444Z,16.06
2022-08-31T10:38:16.801Z,16.39
2022-08-31T10:39:13.450Z,16.56
2022-08-31T10:40:13.518Z,16.72
2022-08-31T10:41:13.445Z,16.56
2022-08-31T10:42:13.457Z,16.56
2022-08-31T10:43:13.453Z,16.39
2022-08-31T10:44:13.450Z,16.06
2022-08-31T10:45:17.866Z,16.39
2022-08-31T10:46:13.507Z,16.22
2022-08-31T10:47:14.217Z,16.06
2022-08-31T10:48:13.448Z,16.06
2022-08-31T10:49:13.457Z,16.22
2022-08-31T10:50:13.449Z,16.06
2022-08-31T10:51:14.134Z,15.89
2022-08-31T10:52:13.455Z,16.06
2022-08-31T10:53:13.628Z,16.06
2022-08-31T10:54:13.463Z,16.39
2022-08-31T10:55:13.471Z,16.56
2022-08-31T10:56:13.467Z,16.56
2022-08-31T10:57:18.841Z,16.39
2022-08-31T10:58:13.455Z,16.39
2022-08-31T10:59:13.466Z,16.22
2022-08-31T11:00:13.468Z,16.06
2022-08-31T11:01:13.506Z,15.89
2022-08-31T11:02:13.469Z,15.61
2022-08-31T11:03:13.456Z,15.78
2022-08-31T11:04:13.513Z,15.78
2022-08-31T11:05:13.460Z,15.78
2022-08-31T11:06:13.457Z,15.89
2022-08-31T11:07:13.463Z,16.06
2022-08-31T11:08:13.472Z,16.06
2022-08-31T11:09:14.783Z,16.06
2022-08-31T11:10:13.465Z,15.89
2022-08-31T11:11:13.467Z,15.89
2022-08-31T11:12:13.483Z,16.22
2022-08-31T11:13:13.473Z,16.22
2022-08-31T11:14:13.485Z,16.06
2022-08-31T11:15:13.472Z,16.39
2022-08-31T11:16:13.500Z,16.56
2022-08-31T11:17:13.480Z,16.39
2022-08-31T11:18:13.474Z,16.56
2022-08-31T11:19:13.488Z,16.39
2022-08-31T11:20:13.491Z,16.22
2022-08-31T11:21:13.487Z,16.06
2022-08-31T11:22:13.479Z,16.22
2022-08-31T11:23:13.488Z,16.39
2022-08-31T11:24:13.493Z,16.72
2022-08-31T11:25:13.492Z,16.22
2022-08-31T11:26:13.496Z,16.06
2022-08-31T11:27:13.498Z,16.56
2022-08-31T11:28:13.495Z,16.56
2022-08-31T11:29:13.501Z,16.06
2022-08-31T11:30:13.494Z,15.89
2022-08-31T11:31:13.569Z,16.06
2022-08-31T11:32:13.498Z,16.06
2022-08-31T11:33:13.501Z,15.89
2022-08-31T11:34:16.286Z,15.89
2022-08-31T11:35:13.508Z,16.22
2022-08-31T11:36:13.510Z,16.39
2022-08-31T11:37:13.514Z,16.39
2022-08-31T11:38:13.511Z,16.56
2022-08-31T11:39:13.511Z,17
2022-08-31T11:40:13.597Z,16.89
2022-08-31T11:41:13.516Z,16.89
2022-08-31T11:42:13.511Z,17.5
2022-08-31T11:43:13.517Z,17.5
2022-08-31T11:44:13.523Z,17
2022-08-31T11:45:14.203Z,17.67
2022-08-31T11:46:16.989Z,17.5
2022-08-31T11:47:13.520Z,17
2022-08-31T11:48:13.519Z,17.33
2022-08-31T11:49:13.521Z,17.17
2022-08-31T11:50:13.513Z,17
2022-08-31T11:51:13.516Z,16.89
2022-08-31T11:52:13.519Z,16.56
2022-08-31T11:53:13.519Z,17
2022-08-31T11:54:13.530Z,16.56
2022-08-31T11:55:13.523Z,17
2022-08-31T11:56:13.516Z,16.72
2022-08-31T11:57:13.527Z,16.56
2022-08-31T11:58:13.528Z,16.56
2022-08-31T11:59:13.520Z,16.56
2022-08-31T12:00:13.529Z,16.72
2022-08-31T12:01:13.547Z,16.89
2022-08-31T12:02:13.566Z,16.56
2022-08-31T12:03:13.532Z,16.89
2022-08-31T12:04:13.529Z,17
2022-08-31T12:05:13.594Z,16.89
2022-08-31T12:06:13.532Z,17
2022-08-31T12:07:13.535Z,16.89
2022-08-31T12:08:13.552Z,17
2022-08-31T12:09:13.542Z,17
2022-08-31T12:10:14.024Z,16.89
2022-08-31T12:11:13.551Z,16.89
2022-08-31T12:12:13.545Z,16.89
2022-08-31T12:13:13.541Z,16.72
2022-08-31T12:14:13.544Z,17
2022-08-31T12:15:13.551Z,17
2022-08-31T12:16:13.559Z,16.56
2022-08-31T12:17:13.543Z,17
2022-08-31T12:18:13.555Z,17
2022-08-31T12:19:13.561Z,16.89
2022-08-31T12:20:13.555Z,16.89
2022-08-31T12:21:13.547Z,17
2022-08-31T12:22:13.554Z,17.17
2022-08-31T12:23:15.347Z,17
2022-08-31T12:24:15.301Z,16.89
2022-08-31T12:25:13.563Z,16.56
2022-08-31T12:26:13.556Z,17
2022-08-31T12:27:13.550Z,16.56
2022-08-31T12:28:13.561Z,16.72
2022-08-31T12:29:13.566Z,16.89
2022-08-31T12:30:13.560Z,17
2022-08-31T12:31:13.611Z,17.5
2022-08-31T12:32:13.569Z,17.17
2022-08-31T12:33:13.569Z,17.5
2022-08-31T12:34:13.566Z,17.5
2022-08-31T12:35:13.582Z,17.5
2022-08-31T12:36:13.574Z,17.5
2022-08-31T12:37:13.572Z,17.5
2022-08-31T12:38:13.568Z,17.17
2022-08-31T12:39:13.573Z,17.67
2022-08-31T12:40:13.638Z,17.94
2022-08-31T12:41:13.582Z,17.83
2022-08-31T12:42:13.566Z,17.67
2022-08-31T12:43:13.570Z,17.5
2022-08-31T12:44:13.956Z,17.5
2022-08-31T12:45:13.579Z,17.67
2022-08-31T12:46:13.639Z,17.33
2022-08-31T12:47:13.582Z,17
2022-08-31T12:48:13.578Z,17
2022-08-31T12:49:13.580Z,16.89
2022-08-31T12:50:13.816Z,17
2022-08-31T12:51:13.584Z,17
2022-08-31T12:52:13.579Z,17.17
2022-08-31T12:53:13.584Z,17
2022-08-31T12:54:13.585Z,17
2022-08-31T12:55:13.582Z,17.17
2022-08-31T12:56:13.576Z,17.5
2022-08-31T12:57:13.594Z,17.5